createdAt,value
2018-01-23T00:02:15.966Z,100858.68
2018-01-23T00:04:44.287Z,100869.23
2018-01-23T00:07:12.645Z,100871.41
2018-01-23T00:09:40.969Z,100874.20
2018-01-23T00:12:09.313Z,100887.81
2018-01-23T00:14:37.677Z,100891.56
2018-01-23T00:17:06.021Z,100896.97
2018-01-23T00:19:34.346Z,100895.52
2018-01-23T00:22:02.690Z,100900.00
2018-01-23T00:24:31.019Z,100899.90
2018-01-23T00:26:59.366Z,100903.88
2018-01-23T00:29:27.686Z,100913.16
2018-01-23T00:31:56.114Z,100916.70
2018-01-23T00:34:24.491Z,100921.52
2018-01-23T00:36:52.833Z,100929.28
2018-01-23T00:39:21.163Z,100922.41
2018-01-23T00:41:49.513Z,100917.33
2018-01-23T00:44:17.846Z,100923.99
2018-01-23T00:46:46.189Z,100928.09
2018-01-23T00:49:14.549Z,100927.72
2018-01-23T00:51:42.930Z,100929.48
2018-01-23T00:54:11.309Z,100934.18
2018-01-23T00:56:39.677Z,100934.45
2018-01-23T00:59:08.006Z,100928.81
2018-01-23T01:01:36.353Z,100935.94
2018-01-23T01:04:04.677Z,100935.56
2018-01-23T01:06:33.085Z,100937.72
2018-01-23T01:09:01.410Z,100951.41
2018-01-23T01:11:29.753Z,100951.91
2018-01-23T01:13:58.118Z,100953.75
2018-01-23T01:16:26.493Z,100950.08
2018-01-23T01:18:54.874Z,100950.80
2018-01-23T01:21:23.233Z,100951.41
2018-01-23T01:23:51.629Z,100957.20
2018-01-23T01:26:19.970Z,100962.14
2018-01-23T01:28:48.293Z,100965.55
2018-01-23T01:31:16.642Z,100965.17
2018-01-23T01:33:44.965Z,100962.10
2018-01-23T01:36:13.410Z,100966.58
2018-01-23T01:38:41.738Z,100967.30
2018-01-23T01:41:10.057Z,100976.36
2018-01-23T01:43:38.401Z,100976.23
2018-01-23T01:46:06.813Z,100980.69
2018-01-23T01:48:47.069Z,100983.55
2018-01-23T01:51:15.396Z,100984.58
2018-01-23T01:53:43.738Z,100996.00
2018-01-23T01:56:12.101Z,100996.44
2018-01-23T01:58:40.477Z,100998.14
2018-01-23T02:01:08.802Z,100998.51
2018-01-23T02:03:37.153Z,101000.53
2018-01-23T02:06:05.477Z,101004.72
2018-01-23T02:08:33.849Z,101002.94
2018-01-23T02:11:02.178Z,101003.71
2018-01-23T02:13:30.526Z,101011.52
2018-01-23T02:15:58.849Z,101010.71
2018-01-23T02:18:27.208Z,101011.23
2018-01-23T02:20:55.565Z,101014.23
2018-01-23T02:23:23.910Z,101017.38
2018-01-23T02:25:52.233Z,101018.26
2018-01-23T02:28:20.577Z,101020.41
2018-01-23T02:30:48.973Z,101021.72
2018-01-23T02:33:17.321Z,101027.57
2018-01-23T02:35:45.649Z,101031.88
2018-01-23T02:38:13.989Z,101032.27
2018-01-23T02:40:42.377Z,101036.53
2018-01-23T02:43:10.758Z,101032.06
2018-01-23T02:45:39.074Z,101037.45
2018-01-23T02:48:07.509Z,101035.19
2018-01-23T02:50:35.835Z,101043.98
2018-01-23T02:53:04.173Z,101045.29
2018-01-23T02:55:32.501Z,101045.69
2018-01-23T02:58:00.850Z,101053.21
2018-01-23T03:00:29.177Z,101047.15
2018-01-23T03:02:57.522Z,101050.56
2018-01-23T03:05:25.850Z,101057.16
2018-01-23T03:07:54.197Z,101058.41
2018-01-23T03:10:22.593Z,101062.95
2018-01-23T03:12:50.937Z,101067.30
2018-01-23T03:15:19.348Z,101072.13
2018-01-23T03:17:47.725Z,101075.88
2018-01-23T03:20:16.081Z,101086.62
2018-01-23T03:22:44.426Z,101087.56
2018-01-23T03:25:12.737Z,101087.93
2018-01-23T03:27:41.137Z,101099.67
2018-01-23T03:30:09.453Z,101101.56
2018-01-23T03:32:37.801Z,101106.69
2018-01-23T03:35:06.118Z,101101.00
2018-01-23T03:37:34.483Z,101107.13
2018-01-23T03:40:02.813Z,101109.28
2018-01-23T03:42:31.189Z,101108.38
2018-01-23T03:44:59.534Z,101107.95
2018-01-23T03:47:27.945Z,101114.12
2018-01-23T03:49:56.289Z,101117.19
2018-01-23T03:52:24.705Z,101122.59
2018-01-23T03:54:53.049Z,101128.69
2018-01-23T03:57:21.369Z,101128.23
2018-01-23T03:59:49.713Z,101135.34
2018-01-23T04:02:18.043Z,101134.89
2018-01-23T04:04:46.385Z,101136.95
2018-01-23T04:07:14.709Z,101140.06
2018-01-23T04:09:43.053Z,101137.03
2018-01-23T04:12:11.373Z,101141.95
2018-01-23T04:14:39.717Z,101143.70
2018-01-23T04:17:08.069Z,101145.83
2018-01-23T04:19:36.444Z,101145.39
2018-01-23T04:22:04.769Z,101148.41
2018-01-23T04:24:33.122Z,101154.97
2018-01-23T04:27:01.474Z,101156.63
2018-01-23T04:29:29.816Z,101159.91
2018-01-23T04:31:58.141Z,101164.67
2018-01-23T04:34:26.486Z,101159.52
2018-01-23T04:36:54.809Z,101159.88
2018-01-23T04:39:23.261Z,101166.61
2018-01-23T04:41:51.586Z,101171.38
2018-01-23T04:44:19.933Z,101173.16
2018-01-23T04:46:48.258Z,101169.63
2018-01-23T04:49:16.601Z,101179.43
2018-01-23T04:51:44.937Z,101182.83
2018-01-23T04:54:13.282Z,101183.81
2018-01-23T04:56:41.752Z,101188.90
2018-01-23T04:59:10.077Z,101198.27
2018-01-23T05:01:38.402Z,101195.87
2018-01-23T05:04:06.749Z,101196.55
2018-01-23T05:06:35.105Z,101198.00
2018-01-23T05:09:03.454Z,101200.20
2018-01-23T05:11:31.777Z,101198.44
2018-01-23T05:14:00.197Z,101206.66
2018-01-23T05:16:28.513Z,101201.84
2018-01-23T05:18:56.856Z,101205.59
2018-01-23T05:21:25.182Z,101201.02
2018-01-23T05:23:53.521Z,101216.47
2018-01-23T05:26:21.916Z,101217.61
2018-01-23T05:28:50.289Z,101216.90
2018-01-23T05:31:18.665Z,101215.59
2018-01-23T05:33:47.017Z,101224.89
2018-01-23T05:36:15.341Z,101222.30
2018-01-23T05:38:43.779Z,101226.08
2018-01-23T05:41:12.110Z,101225.44
2018-01-23T05:43:40.437Z,101227.58
2018-01-23T05:46:08.782Z,101231.20
2018-01-23T05:48:37.109Z,101232.91
2018-01-23T05:51:05.458Z,101244.16
2018-01-23T05:53:33.781Z,101236.30
2018-01-23T05:56:02.238Z,101241.45
2018-01-23T05:58:30.569Z,101242.13
2018-01-23T06:00:58.923Z,101248.23
2018-01-23T06:03:27.261Z,101246.35
2018-01-23T06:05:55.645Z,101254.70
2018-01-23T06:08:23.982Z,101257.52
2018-01-23T06:10:52.340Z,101260.27
2018-01-23T06:13:20.679Z,101260.59
2018-01-23T06:15:49.025Z,101265.41
2018-01-23T06:18:17.430Z,101262.83
2018-01-23T06:20:45.787Z,101261.45
2018-01-23T06:23:14.117Z,101254.86
2018-01-23T06:25:43.361Z,101266.69
2018-01-23T06:28:11.689Z,101275.30
2018-01-23T06:30:40.129Z,101282.45
2018-01-23T06:33:08.509Z,101287.16
2018-01-23T06:35:37.457Z,101288.97
2018-01-23T06:38:05.877Z,101287.98
2018-01-23T06:40:34.258Z,101291.56
2018-01-23T06:43:02.588Z,101298.25
2018-01-23T06:45:30.942Z,101298.77
2018-01-23T06:47:59.270Z,101300.91
2018-01-23T06:50:27.617Z,101302.66
2018-01-23T06:52:55.949Z,101305.73
2018-01-23T06:55:24.306Z,101315.36
2018-01-23T06:57:52.637Z,101315.73
2018-01-23T07:00:20.995Z,101319.19
2018-01-23T07:02:49.327Z,101312.22
2018-01-23T07:05:17.678Z,101324.36
2018-01-23T07:07:46.010Z,101328.81
2018-01-23T07:10:14.353Z,101329.23
2018-01-23T07:12:42.690Z,101329.42
2018-01-23T07:15:11.038Z,101326.22
2018-01-23T07:17:39.373Z,101327.16
2018-01-23T07:20:07.717Z,101331.60
2018-01-23T07:22:36.049Z,101330.56
2018-01-23T07:25:04.642Z,101332.75
2018-01-23T07:27:33.042Z,101335.08
2018-01-23T07:30:01.390Z,101332.77
2018-01-23T07:32:29.713Z,101334.19
2018-01-23T07:34:58.070Z,101331.11
2018-01-23T07:37:26.398Z,101329.41
2018-01-23T07:39:54.746Z,101332.97
2018-01-23T07:42:23.077Z,101331.05
2018-01-23T07:44:51.428Z,101339.46
2018-01-23T07:47:19.932Z,101341.12
2018-01-23T07:49:48.263Z,101342.98
2018-01-23T07:52:16.645Z,101343.58
2018-01-23T07:54:44.981Z,101351.94
2018-01-23T07:57:13.657Z,101347.16
2018-01-23T07:59:41.999Z,101354.36
2018-01-23T08:02:10.379Z,101353.59
2018-01-23T08:04:38.741Z,101355.08
2018-01-23T08:07:07.095Z,101361.88
2018-01-23T08:09:35.433Z,101367.38
2018-01-23T08:12:03.773Z,101370.34
2018-01-23T08:14:32.132Z,101374.80
2018-01-23T08:17:00.476Z,101376.61
2018-01-23T08:19:28.802Z,101382.37
2018-01-23T08:21:57.156Z,101381.33
2018-01-23T08:24:25.486Z,101392.72
2018-01-23T08:26:53.838Z,101393.65
2018-01-23T08:29:22.227Z,101393.11
2018-01-23T08:31:50.648Z,101397.55
2018-01-23T08:34:18.979Z,101400.40
2018-01-23T08:36:48.290Z,101408.48
2018-01-23T08:39:16.653Z,101411.45
2018-01-23T08:41:45.040Z,101410.08
2018-01-23T08:44:13.365Z,101406.02
2018-01-23T08:46:41.718Z,101412.22
2018-01-23T08:49:10.050Z,101415.31
2018-01-23T08:51:38.401Z,101418.64
2018-01-23T08:54:06.726Z,101424.86
2018-01-23T08:56:35.081Z,101417.05
2018-01-23T08:59:03.405Z,101420.45
2018-01-23T09:01:31.757Z,101425.62
2018-01-23T09:04:00.084Z,101420.13
2018-01-23T09:06:28.429Z,101422.73
2018-01-23T09:08:56.753Z,101419.47
2018-01-23T09:11:25.101Z,101425.20
2018-01-23T09:13:53.430Z,101432.73
2018-01-23T09:16:21.776Z,101424.76
2018-01-23T09:18:50.102Z,101428.22
2018-01-23T09:21:18.453Z,101432.83
2018-01-23T09:23:46.786Z,101427.59
2018-01-23T09:26:15.138Z,101430.69
2018-01-23T09:28:43.466Z,101432.50
2018-01-23T09:31:11.813Z,101429.74
2018-01-23T09:33:40.137Z,101425.73
2018-01-23T09:36:08.485Z,101419.39
2018-01-23T09:38:36.815Z,101428.45
2018-01-23T09:41:05.162Z,101430.00
2018-01-23T09:43:33.491Z,101428.50
2018-01-23T09:46:01.838Z,101429.95
2018-01-23T09:48:30.194Z,101437.06
2018-01-23T09:50:58.526Z,101441.73
2018-01-23T09:53:26.882Z,101449.27
2018-01-23T09:55:55.209Z,101446.87
2018-01-23T09:58:23.588Z,101445.67
2018-01-23T10:00:51.887Z,101440.58
2018-01-23T10:03:20.235Z,101437.94
2018-01-23T10:05:48.566Z,101444.16
2018-01-23T10:08:16.909Z,101440.72
2018-01-23T10:10:45.243Z,101447.05
2018-01-23T10:13:13.590Z,101440.22
2018-01-23T10:15:41.922Z,101436.50
2018-01-23T10:18:10.270Z,101441.52
2018-01-23T10:20:38.597Z,101440.91
2018-01-23T10:23:06.949Z,101432.32
2018-01-23T10:25:35.277Z,101427.70
2018-01-23T10:28:03.625Z,101438.27
2018-01-23T10:30:31.957Z,101433.93
2018-01-23T10:33:00.310Z,101440.01
2018-01-23T10:35:28.639Z,101442.02
2018-01-23T10:37:56.990Z,101441.64
2018-01-23T10:40:25.316Z,101441.78
2018-01-23T10:42:53.666Z,101448.84
2018-01-23T10:45:21.993Z,101443.91
2018-01-23T10:47:50.346Z,101442.69
2018-01-23T10:50:18.678Z,101439.98
2018-01-23T10:52:47.026Z,101436.19
2018-01-23T10:55:15.353Z,101445.66
2018-01-23T10:57:43.710Z,101436.61
2018-01-23T11:00:12.038Z,101438.28
2018-01-23T11:02:40.386Z,101438.68
2018-01-23T11:05:08.714Z,101441.74
2018-01-23T11:07:37.070Z,101435.30
2018-01-23T11:10:05.394Z,101438.44
2018-01-23T11:12:33.746Z,101426.55
2018-01-23T11:15:02.069Z,101430.05
2018-01-23T11:17:30.432Z,101431.30
2018-01-23T11:19:58.754Z,101432.78
2018-01-23T11:22:27.105Z,101426.77
2018-01-23T11:24:55.438Z,101426.67
2018-01-23T11:27:23.793Z,101428.52
2018-01-23T11:29:52.122Z,101427.19
2018-01-23T11:32:20.481Z,101418.80
2018-01-23T11:34:48.801Z,101421.14
2018-01-23T11:37:17.153Z,101421.80
2018-01-23T11:39:45.481Z,101419.61
2018-01-23T11:42:13.829Z,101406.67
2018-01-23T11:44:42.160Z,101407.39
2018-01-23T11:47:10.485Z,101405.13
2018-01-23T11:49:38.838Z,101400.73
2018-01-23T11:52:07.171Z,101403.60
2018-01-23T11:54:35.522Z,101408.08
2018-01-23T11:57:03.850Z,101404.12
2018-01-23T11:59:32.210Z,101404.04
2018-01-23T12:02:00.537Z,101395.81
2018-01-23T12:04:28.897Z,101401.77
2018-01-23T12:06:57.226Z,101401.45
2018-01-23T12:09:25.577Z,101396.81
2018-01-23T12:11:53.911Z,101397.80
2018-01-23T12:14:22.257Z,101391.33
2018-01-23T12:16:50.586Z,101391.60
2018-01-23T12:19:18.970Z,101386.45
2018-01-23T12:21:47.270Z,101389.50
2018-01-23T12:24:15.612Z,101389.39
2018-01-23T12:26:43.947Z,101390.63
2018-01-23T12:29:12.299Z,101385.29
2018-01-23T12:31:40.621Z,101379.62
2018-01-23T12:34:08.965Z,101382.84
2018-01-23T12:36:38.375Z,101386.16
2018-01-23T12:39:07.409Z,101385.77
2018-01-23T12:41:35.747Z,101388.55
2018-01-23T12:44:04.093Z,101383.75
2018-01-23T12:46:32.415Z,101384.99
2018-01-23T12:49:00.765Z,101375.48
2018-01-23T12:51:29.093Z,101368.63
2018-01-23T12:53:58.509Z,101367.50
2018-01-23T12:56:26.833Z,101368.47
2018-01-23T12:58:55.180Z,101358.89
2018-01-23T13:01:23.515Z,101348.59
2018-01-23T13:03:51.859Z,101357.12
2018-01-23T13:06:20.190Z,101352.17
2018-01-23T13:08:48.533Z,101349.17
2018-01-23T13:11:16.865Z,101345.27
2018-01-23T13:13:45.213Z,101345.69
2018-01-23T13:16:13.534Z,101344.47
2018-01-23T13:18:41.882Z,101343.75
2018-01-23T13:21:10.208Z,101337.19
2018-01-23T13:23:38.546Z,101334.08
2018-01-23T13:26:06.878Z,101343.31
2018-01-23T13:28:35.226Z,101336.19
2018-01-23T13:31:03.560Z,101332.94
2018-01-23T13:33:31.901Z,101333.13
2018-01-23T13:36:00.225Z,101323.14
2018-01-23T13:38:28.573Z,101321.11
2018-01-23T13:40:56.902Z,101325.81
2018-01-23T13:43:25.262Z,101318.76
2018-01-23T13:45:54.445Z,101320.23
2018-01-23T13:48:22.802Z,101316.86
2018-01-23T13:50:51.131Z,101317.83
2018-01-23T13:53:19.458Z,101311.56
2018-01-23T13:55:47.802Z,101310.98
2018-01-23T13:58:16.130Z,101309.88
2018-01-23T14:00:44.470Z,101312.75
2018-01-23T14:03:12.797Z,101306.73
2018-01-23T14:05:41.139Z,101302.16
2018-01-23T14:08:09.472Z,101295.36
2018-01-23T14:10:37.819Z,101290.50
2018-01-23T14:13:06.135Z,101293.94
2018-01-23T14:15:34.482Z,101292.78
2018-01-23T14:18:02.807Z,101287.83
2018-01-23T14:20:31.155Z,101288.73
2018-01-23T14:22:59.478Z,101289.18
2018-01-23T14:25:27.825Z,101278.75
2018-01-23T14:27:56.153Z,101282.55
2018-01-23T14:30:24.549Z,101289.38
2018-01-23T14:32:52.852Z,101286.81
2018-01-23T14:35:21.223Z,101284.83
2018-01-23T14:37:49.534Z,101279.20
2018-01-23T14:40:17.882Z,101272.92
2018-01-23T14:42:46.206Z,101280.30
2018-01-23T14:45:14.552Z,101273.89
2018-01-23T14:47:42.890Z,101275.92
2018-01-23T14:50:11.225Z,101263.97
2018-01-23T14:52:39.550Z,101262.12
2018-01-23T14:55:07.926Z,101260.70
2018-01-23T14:57:36.241Z,101259.12
2018-01-23T15:00:04.581Z,101257.36
2018-01-23T15:02:32.963Z,101248.14
2018-01-23T15:05:01.400Z,101249.40
2018-01-23T15:07:30.489Z,101241.34
2018-01-23T15:09:58.942Z,101241.42
2018-01-23T15:12:27.253Z,101242.06
2018-01-23T15:14:55.593Z,101243.89
2018-01-23T15:17:23.929Z,101242.20
2018-01-23T15:19:52.387Z,101239.91
2018-01-23T15:22:20.707Z,101244.89
2018-01-23T15:24:49.113Z,101243.67
2018-01-23T15:27:17.452Z,101239.97
2018-01-23T15:29:45.797Z,101239.10
2018-01-23T15:32:14.239Z,101235.71
2018-01-23T15:34:43.565Z,101238.84
2018-01-23T15:37:12.063Z,101251.29
2018-01-23T15:39:40.381Z,101237.84
2018-01-23T15:42:08.750Z,101228.35
2018-01-23T15:44:37.136Z,101231.97
2018-01-23T15:47:05.646Z,101228.30
2018-01-23T15:49:34.004Z,101218.39
2018-01-23T15:52:02.374Z,101218.02
2018-01-23T15:54:30.733Z,101216.09
2018-01-23T15:56:59.138Z,101207.02
2018-01-23T15:59:27.560Z,101213.78
2018-01-23T16:01:56.018Z,101208.16
2018-01-23T16:04:24.356Z,101204.89
2018-01-23T16:06:52.744Z,101198.81
2018-01-23T16:09:21.117Z,101201.81
2018-01-23T16:11:49.456Z,101200.81
2018-01-23T16:14:17.874Z,101204.62
2018-01-23T16:16:46.219Z,101205.92
2018-01-23T16:19:14.757Z,101206.55
2018-01-23T16:21:43.186Z,101201.03
2018-01-23T16:24:11.494Z,101199.00
2018-01-23T16:26:39.833Z,101200.33
2018-01-23T16:29:20.004Z,101194.66
2018-01-23T16:31:50.337Z,101182.17
2018-01-23T16:34:18.718Z,101179.25
2018-01-23T16:36:47.085Z,101180.67
2018-01-23T16:39:15.466Z,101176.05
2018-01-23T16:41:44.410Z,101179.70
2018-01-23T16:44:12.806Z,101174.64
2018-01-23T16:46:41.150Z,101167.27
2018-01-23T16:49:09.487Z,101164.10
2018-01-23T16:51:37.822Z,101159.37
2018-01-23T16:54:06.145Z,101157.31
2018-01-23T16:56:34.514Z,101158.73
2018-01-23T16:59:02.837Z,101154.92
2018-01-23T17:01:31.178Z,101153.88
2018-01-23T17:03:59.488Z,101155.64
2018-01-23T17:06:27.985Z,101150.31
2018-01-23T17:08:56.344Z,101153.49
2018-01-23T17:11:24.681Z,101153.93
2018-01-23T17:13:53.786Z,101146.99
2018-01-23T17:16:22.141Z,101154.47
2018-01-23T17:18:50.461Z,101143.97
2018-01-23T17:21:18.853Z,101145.29
2018-01-23T17:23:47.277Z,101135.91
2018-01-23T17:26:15.616Z,101143.30
2018-01-23T17:28:44.006Z,101139.14
2018-01-23T17:31:12.406Z,101129.52
2018-01-23T17:33:40.781Z,101131.84
2018-01-23T17:36:09.116Z,101143.18
2018-01-23T17:38:37.537Z,101136.15
2018-01-23T17:41:05.920Z,101135.00
2018-01-23T17:43:34.241Z,101127.16
2018-01-23T17:46:02.569Z,101128.17
2018-01-23T17:48:30.976Z,101122.77
2018-01-23T17:50:59.681Z,101129.06
2018-01-23T17:53:27.992Z,101127.24
2018-01-23T17:55:56.333Z,101130.62
2018-01-23T17:58:24.697Z,101121.47
2018-01-23T18:00:53.129Z,101124.87
2018-01-23T18:03:21.517Z,101124.08
2018-01-23T18:05:50.818Z,101128.28
2018-01-23T18:08:19.128Z,101141.14
2018-01-23T18:10:47.460Z,101134.87
2018-01-23T18:13:15.797Z,101126.74
2018-01-23T18:15:44.177Z,101131.67
2018-01-23T18:18:12.602Z,101115.04
2018-01-23T18:20:40.917Z,101114.52
2018-01-23T18:23:09.253Z,101107.53
2018-01-23T18:25:38.474Z,101098.30
2018-01-23T18:28:06.821Z,101091.48
2018-01-23T18:30:35.137Z,101088.62
2018-01-23T18:33:03.492Z,101076.83
2018-01-23T18:35:31.814Z,101078.20
2018-01-23T18:38:00.592Z,101070.78
2018-01-23T18:40:29.380Z,101060.67
2018-01-23T18:42:58.268Z,101062.02
2018-01-23T18:45:26.657Z,101060.16
2018-01-23T18:47:55.071Z,101065.45
2018-01-23T18:50:23.386Z,101062.72
2018-01-23T18:52:51.826Z,101063.45
2018-01-23T18:55:20.145Z,101056.81
2018-01-23T18:57:48.481Z,101057.27
2018-01-23T19:00:16.855Z,101047.45
2018-01-23T19:02:45.277Z,101037.91
2018-01-23T19:05:13.710Z,101046.10
2018-01-23T19:07:42.050Z,101035.22
2018-01-23T19:10:10.362Z,101030.30
2018-01-23T19:12:38.706Z,101018.31
2018-01-23T19:15:07.148Z,101022.07
2018-01-23T19:17:40.398Z,101013.89
2018-01-23T19:20:08.810Z,101017.78
2018-01-23T19:22:37.526Z,101021.16
2018-01-23T19:25:05.918Z,101015.27
2018-01-23T19:27:34.261Z,101025.66
2018-01-23T19:30:02.597Z,101036.93
2018-01-23T19:32:30.982Z,101029.08
2018-01-23T19:34:59.302Z,101020.05
2018-01-23T19:37:27.733Z,101016.91
2018-01-23T19:39:56.118Z,101013.91
2018-01-23T19:42:24.484Z,101023.09
2018-01-23T19:44:52.819Z,101038.14
2018-01-23T19:47:21.145Z,101027.83
2018-01-23T19:49:49.470Z,101032.94
2018-01-23T19:52:17.849Z,101039.70
2018-01-23T19:54:46.269Z,101028.62
2018-01-23T19:57:14.604Z,101025.09
2018-01-23T19:59:42.973Z,101020.21
2018-01-23T20:02:13.344Z,101026.20
2018-01-23T20:04:41.666Z,101025.84
2018-01-23T20:07:10.052Z,101009.69
2018-01-23T20:09:38.378Z,101005.39
2018-01-23T20:12:06.725Z,100997.89
2018-01-23T20:14:35.781Z,101000.98
2018-01-23T20:17:04.229Z,100995.16
2018-01-23T20:19:32.550Z,100998.23
2018-01-23T20:22:00.866Z,100988.17
2018-01-23T20:24:29.253Z,100999.94
2018-01-23T20:26:57.573Z,101012.01
2018-01-23T20:29:25.909Z,101008.68
2018-01-23T20:31:54.289Z,101002.33
2018-01-23T20:34:23.570Z,101005.91
2018-01-23T20:36:51.941Z,101000.55
2018-01-23T20:39:20.283Z,100997.15
2018-01-23T20:41:48.626Z,100994.99
2018-01-23T20:44:17.862Z,101000.88
2018-01-23T20:46:46.186Z,100998.72
2018-01-23T20:49:14.565Z,100996.84
2018-01-23T20:51:42.922Z,100987.99
2018-01-23T20:54:11.250Z,100984.95
2018-01-23T20:56:39.570Z,100986.25
2018-01-23T20:59:07.973Z,100981.15
2018-01-23T21:01:36.285Z,100985.39
2018-01-23T21:04:04.621Z,100989.52
2018-01-23T21:06:32.978Z,100990.59
2018-01-23T21:09:01.330Z,100989.47
2018-01-23T21:11:29.667Z,100986.70
2018-01-23T21:13:58.134Z,100989.95
2018-01-23T21:16:26.504Z,100989.30
2018-01-23T21:18:54.886Z,100997.67
2018-01-23T21:21:23.201Z,100998.90
2018-01-23T21:23:51.540Z,101004.85
2018-01-23T21:26:19.915Z,100998.84
2018-01-23T21:28:48.289Z,100993.08
2018-01-23T21:31:18.002Z,100996.78
2018-01-23T21:33:46.342Z,101010.56
2018-01-23T21:36:14.737Z,101004.36
2018-01-23T21:38:43.082Z,101005.23
2018-01-23T21:41:11.558Z,101009.55
2018-01-23T21:43:39.948Z,101007.89
2018-01-23T21:46:08.238Z,100991.28
2018-01-23T21:48:36.585Z,100990.23
2018-01-23T21:51:05.249Z,100996.77
2018-01-23T21:53:33.594Z,100996.23
2018-01-23T21:56:01.918Z,100988.86
2018-01-23T21:58:30.264Z,100998.67
2018-01-23T22:00:58.633Z,100993.41
2018-01-23T22:03:26.963Z,100996.41
2018-01-23T22:05:55.281Z,100994.01
2018-01-23T22:08:24.542Z,100990.59
2018-01-23T22:10:52.853Z,100991.45
2018-01-23T22:13:21.193Z,100989.53
2018-01-23T22:15:49.525Z,100992.67
2018-01-23T22:18:17.870Z,100994.70
2018-01-23T22:20:46.197Z,100985.80
2018-01-23T22:23:14.554Z,100989.06
2018-01-23T22:25:43.769Z,100994.29
2018-01-23T22:28:12.241Z,100991.95
2018-01-23T22:30:40.577Z,100995.52
2018-01-23T22:33:08.901Z,100986.23
2018-01-23T22:35:37.254Z,100983.59
2018-01-23T22:38:05.575Z,100985.09
2018-01-23T22:40:33.918Z,100966.23
2018-01-23T22:43:02.241Z,100965.52
2018-01-23T22:45:30.573Z,100971.22
2018-01-23T22:47:58.893Z,100979.36
2018-01-23T22:50:27.233Z,100980.08
2018-01-23T22:52:55.554Z,100981.04
2018-01-23T22:55:23.892Z,100979.16
2018-01-23T22:57:52.208Z,100990.35
2018-01-23T23:00:20.557Z,100987.13
2018-01-23T23:02:48.878Z,100980.86
2018-01-23T23:05:17.214Z,100977.24
2018-01-23T23:07:45.542Z,100984.66
2018-01-23T23:10:13.881Z,100988.03
2018-01-23T23:12:42.205Z,100984.57
2018-01-23T23:15:10.549Z,100982.83
2018-01-23T23:17:38.874Z,100966.64
2018-01-23T23:20:07.216Z,100983.63
2018-01-23T23:22:35.525Z,100972.28
2018-01-23T23:25:03.865Z,100978.03
2018-01-23T23:27:32.185Z,100968.39
2018-01-23T23:30:00.525Z,100967.84
2018-01-23T23:32:28.843Z,100955.31
2018-01-23T23:34:57.173Z,100969.66
2018-01-23T23:37:25.495Z,100982.02
2018-01-23T23:39:53.833Z,100981.98
2018-01-23T23:42:22.149Z,100979.44
2018-01-23T23:44:50.485Z,100982.98
2018-01-23T23:47:18.805Z,100992.72
2018-01-23T23:49:47.149Z,100987.44
2018-01-23T23:52:15.473Z,100977.58
2018-01-23T23:54:43.813Z,100989.96
2018-01-23T23:57:12.135Z,100980.20
2018-01-23T23:59:40.518Z,100982.78
